Time;durP1;ratioP1;P1;durP2;ratioP2;P2;SDS_P1;SDS_P2;PMS_P1;PMS_P2;Temp;Humidity;BMP_temperature;BMP_pressure;BME280_temperature;BME280_humidity;BME280_pressure;Samples;Min_cycle;Max_cycle;Signal;HPM_P1;HPM_P2
2021/11/12 00:04:18;;;;;;;25.90;18.90;;;7.40;99.90;;;;;;6290923;28;20873;-64
2021/11/12 00:14:01;;;;;;;26.80;17.03;;;7.50;99.90;;;;;;6293240;28;20473;-64
2021/11/12 00:17:10;;;;;;;24.10;15.53;;;7.40;99.90;;;;;;6291219;28;20815;-64
2021/11/12 00:20:13;;;;;;;23.07;16.00;;;7.30;99.90;;;;;;6292264;28;20526;-65
2021/11/12 00:23:17;;;;;;;25.70;15.73;;;7.30;99.90;;;;;;6277346;28;20469;-64
2021/11/12 00:26:21;;;;;;;21.40;15.60;;;7.40;99.90;;;;;;6278080;28;20473;-65
2021/11/12 00:29:24;;;;;;;19.90;14.47;;;7.40;99.90;;;;;;6277749;28;21865;-64
2021/11/12 00:32:39;;;;;;;26.07;16.20;;;7.40;99.90;;;;;;6275545;28;20473;-64
2021/11/12 00:35:45;;;;;;;21.10;15.07;;;7.40;99.90;;;;;;6277730;28;20471;-66
2021/11/12 00:38:52;;;;;;;21.97;15.27;;;7.40;99.90;;;;;;6277859;28;20969;-65
2021/11/12 00:42:05;;;;;;;19.60;13.43;;;7.40;99.90;;;;;;6278162;28;20511;-64
2021/11/12 00:45:09;;;;;;;18.33;13.70;;;7.40;99.90;;;;;;6278062;28;20485;-65
2021/11/12 00:48:17;;;;;;;22.87;15.33;;;7.40;99.90;;;;;;6277582;28;20473;-65
2021/11/12 00:51:24;;;;;;;20.30;14.53;;;7.20;99.90;;;;;;6278052;28;20482;-65
2021/11/12 00:54:27;;;;;;;22.30;13.70;;;7.20;99.90;;;;;;6278005;28;20482;-65
2021/11/12 00:57:32;;;;;;;24.37;15.33;;;7.20;99.90;;;;;;6277313;28;21025;-65
2021/11/12 01:00:37;;;;;;;21.53;14.20;;;7.10;99.90;;;;;;6277470;28;20473;-65
2021/11/12 01:03:41;;;;;;;21.60;13.60;;;7.10;99.90;;;;;;6277183;28;20985;-65
2021/11/12 01:06:46;;;;;;;23.53;15.07;;;7.20;99.90;;;;;;6277141;28;20475;-65
2021/11/12 01:09:50;;;;;;;20.20;14.07;;;7.20;99.90;;;;;;6274883;28;20759;-65
2021/11/12 01:12:53;;;;;;;22.03;15.47;;;7.20;99.90;;;;;;6277353;28;20453;-65
2021/11/12 01:15:57;;;;;;;17.60;13.20;;;7.20;99.90;;;;;;6277073;28;20470;-65
2021/11/12 01:19:01;;;;;;;20.10;13.50;;;7.30;99.90;;;;;;6277283;28;20446;-65
2021/11/12 01:22:05;;;;;;;17.77;13.30;;;7.30;99.90;;;;;;6277158;28;20446;-65
2021/11/12 01:25:11;;;;;;;18.27;12.20;;;7.30;99.90;;;;;;6277321;28;20511;-65
2021/11/12 01:28:14;;;;;;;20.53;12.93;;;7.30;99.90;;;;;;6276719;28;20484;-66
2021/11/12 01:31:20;;;;;;;18.50;13.10;;;7.20;99.90;;;;;;6276615;28;20469;-65
2021/11/12 01:34:24;;;;;;;20.53;13.77;;;7.20;99.90;;;;;;6275939;28;20466;-65
2021/11/12 01:37:29;;;;;;;15.57;13.40;;;7.20;99.90;;;;;;6276612;28;20470;-65
2021/11/12 01:40:32;;;;;;;20.07;13.97;;;7.20;99.90;;;;;;6276597;28;20481;-65
2021/11/12 01:43:41;;;;;;;16.27;12.10;;;7.10;99.90;;;;;;6276546;28;20470;-65
2021/11/12 01:46:55;;;;;;;17.77;13.00;;;7.10;99.90;;;;;;6276707;28;20470;-65
2021/11/12 01:50:04;;;;;;;17.17;11.90;;;7.00;99.90;;;;;;6276543;28;20970;-65
2021/11/12 01:53:10;;;;;;;17.40;12.20;;;7.00;99.90;;;;;;6276340;28;20977;-65
2021/11/12 01:56:29;;;;;;;18.70;13.30;;;7.10;99.90;;;;;;6276159;28;20470;-65
2021/11/12 01:59:32;;;;;;;18.70;12.20;;;7.20;99.90;;;;;;6275833;28;20470;-65
2021/11/12 02:02:35;;;;;;;15.70;11.33;;;7.30;99.90;;;;;;6276120;28;20470;-65
2021/11/12 02:05:40;;;;;;;11.90;10.60;;;7.20;99.90;;;;;;6276201;28;20474;-65
2021/11/12 02:08:43;;;;;;;13.13;11.20;;;7.20;99.90;;;;;;6275320;28;20864;-65
2021/11/12 02:11:50;;;;;;;17.23;12.70;;;7.20;99.90;;;;;;6275621;28;20474;-65
2021/11/12 02:14:54;;;;;;;16.10;11.70;;;7.20;99.90;;;;;;6271239;28;20470;-65
2021/11/12 02:18:00;;;;;;;14.73;11.80;;;7.30;99.90;;;;;;6275816;28;20466;-65
2021/11/12 02:21:10;;;;;;;15.30;12.43;;;7.30;99.90;;;;;;6275268;28;20799;-65
2021/11/12 02:24:15;;;;;;;16.57;11.30;;;7.30;99.90;;;;;;6275782;28;20490;-65
2021/11/12 02:27:20;;;;;;;15.33;11.20;;;7.30;99.90;;;;;;6275207;28;20470;-65
2021/11/12 02:30:26;;;;;;;15.70;10.70;;;7.30;99.90;;;;;;6275452;28;20778;-65
2021/11/12 02:33:33;;;;;;;12.17;10.73;;;7.30;99.90;;;;;;6275028;28;20473;-65
2021/11/12 02:36:37;;;;;;;11.67;10.43;;;7.20;99.90;;;;;;6275485;28;20478;-65
2021/11/12 02:39:42;;;;;;;13.20;10.30;;;7.20;99.90;;;;;;6275408;28;20474;-65
2021/11/12 02:42:46;;;;;;;13.53;10.40;;;7.10;99.90;;;;;;6275065;28;20462;-65
2021/11/12 02:45:49;;;;;;;14.80;10.73;;;7.10;99.90;;;;;;6274854;28;20473;-65
2021/11/12 02:48:54;;;;;;;13.90;11.40;;;7.10;99.90;;;;;;6275369;28;20460;-65
2021/11/12 02:51:58;;;;;;;15.53;10.73;;;7.10;99.90;;;;;;6275132;28;20477;-65
2021/11/12 02:55:01;;;;;;;14.63;10.00;;;7.10;99.90;;;;;;6274586;28;20934;-65
2021/11/12 02:58:05;;;;;;;11.70;10.47;;;7.10;99.90;;;;;;6274236;28;20757;-65
2021/11/12 03:01:10;;;;;;;13.80;9.90;;;7.00;99.90;;;;;;6274689;28;20434;-65
2021/11/12 03:04:15;;;;;;;12.10;9.90;;;7.10;99.90;;;;;;6275365;28;20524;-65
2021/11/12 03:07:19;;;;;;;9.93;8.40;;;7.20;99.90;;;;;;6275222;28;20478;-65
2021/11/12 03:10:23;;;;;;;12.00;9.30;;;7.20;99.90;;;;;;6274772;28;20485;-65
2021/11/12 03:13:26;;;;;;;12.83;11.40;;;7.20;99.90;;;;;;6275016;28;20473;-64
2021/11/12 03:16:30;;;;;;;11.73;9.10;;;7.30;99.90;;;;;;6274627;28;20960;-64
2021/11/12 03:19:34;;;;;;;13.37;10.30;;;7.40;99.90;;;;;;6265689;28;20514;-65
2021/11/12 03:22:42;;;;;;;10.87;9.17;;;7.40;99.90;;;;;;6274836;28;20500;-65
2021/11/12 03:25:50;;;;;;;12.70;8.67;;;7.40;99.90;;;;;;6274616;28;20535;-65
2021/11/12 04:02:49;;;;;;;10.90;8.90;;;7.50;99.90;;;;;;6279643;28;20762;-66
2021/11/12 04:06:15;;;;;;;10.07;8.03;;;7.40;99.90;;;;;;6279171;28;20954;-66
2021/11/12 04:50:18;;;;;;;11.03;9.50;;;7.20;99.90;;;;;;6277313;28;20570;-63
2021/11/12 05:10:31;;;;;;;16.37;10.20;;;7.10;99.90;;;;;;6277091;28;20958;-63
2021/11/12 05:44:02;;;;;;;13.37;9.83;;;7.00;99.90;;;;;;6276833;28;20969;-63
2021/11/12 05:49:42;;;;;;;13.43;10.67;;;6.90;99.90;;;;;;6277190;28;20478;-63
2021/11/12 05:50:39;;;;;;;12.90;10.10;;;6.90;99.90;;;;;;6276601;28;20484;-63
2021/11/12 05:57:05;;;;;;;12.63;9.73;;;6.90;99.90;;;;;;6276527;28;20810;-66
2021/11/12 06:00:10;;;;;;;12.10;10.53;;;6.90;99.90;;;;;;6276060;28;20523;-65
2021/11/12 06:03:14;;;;;;;14.97;10.90;;;6.90;99.90;;;;;;6275931;28;20489;-65
2021/11/12 06:06:17;;;;;;;15.57;11.90;;;6.90;99.90;;;;;;6275693;28;20485;-65
2021/11/12 06:09:22;;;;;;;18.83;12.20;;;6.80;99.90;;;;;;6275741;28;20489;-66
2021/11/12 06:12:26;;;;;;;14.30;11.20;;;6.70;99.90;;;;;;6275557;28;20486;-65
2021/11/12 06:15:34;;;;;;;14.03;10.90;;;6.80;99.90;;;;;;6276021;28;20478;-65
2021/11/12 06:18:37;;;;;;;12.10;10.23;;;6.80;99.90;;;;;;6275105;28;20515;-65
2021/11/12 06:21:40;;;;;;;17.90;12.83;;;6.80;99.90;;;;;;6275586;28;20962;-66
2021/11/12 06:24:45;;;;;;;15.57;11.90;;;6.80;99.90;;;;;;6275957;28;20470;-66
2021/11/12 06:27:49;;;;;;;16.87;11.60;;;6.90;99.90;;;;;;6274808;28;20475;-65
2021/11/12 06:30:52;;;;;;;13.43;11.63;;;6.90;99.90;;;;;;6275198;28;20454;-66
2021/11/12 06:33:55;;;;;;;13.67;11.70;;;6.90;99.90;;;;;;6275056;28;20482;-65
2021/11/12 06:36:59;;;;;;;15.40;10.97;;;6.90;99.90;;;;;;6275686;28;20473;-65
2021/11/12 06:40:04;;;;;;;14.10;12.37;;;6.90;99.90;;;;;;6276023;28;20449;-65
2021/11/12 06:43:10;;;;;;;18.70;12.70;;;6.90;99.90;;;;;;6275393;28;20894;-66
2021/11/12 06:49:38;;;;;;;16.13;11.53;;;6.90;99.90;;;;;;6274766;28;20966;-65
2021/11/12 06:52:43;;;;;;;19.80;13.40;;;6.90;99.90;;;;;;6275119;28;21137;-65
2021/11/12 06:55:49;;;;;;;19.77;13.03;;;6.90;99.90;;;;;;6275094;28;20485;-65
2021/11/12 06:58:53;;;;;;;18.53;13.87;;;6.90;99.90;;;;;;6274615;28;20481;-66
2021/11/12 07:01:56;;;;;;;18.10;12.80;;;6.90;99.90;;;;;;6275109;28;20798;-66
2021/11/12 07:04:59;;;;;;;17.20;12.60;;;6.90;99.90;;;;;;6274195;28;20806;-66
2021/11/12 07:08:03;;;;;;;15.00;11.87;;;6.80;99.90;;;;;;6274550;28;20470;-66
2021/11/12 07:11:08;;;;;;;16.30;12.20;;;6.80;99.90;;;;;;6276367;28;20490;-65
2021/11/12 07:14:11;;;;;;;17.60;13.13;;;6.90;99.90;;;;;;6275003;28;20833;-66
2021/11/12 07:17:16;;;;;;;19.23;14.00;;;6.90;99.90;;;;;;6274502;28;20473;-65
2021/11/12 07:20:19;;;;;;;21.10;14.33;;;6.90;99.90;;;;;;6274638;28;20474;-65
2021/11/12 07:23:25;;;;;;;21.27;13.97;;;6.90;99.90;;;;;;6274592;28;20481;-66
2021/11/12 07:26:30;;;;;;;18.20;13.97;;;6.90;99.90;;;;;;6274752;28;21110;-65
2021/11/12 07:29:35;;;;;;;21.17;14.87;;;6.90;99.90;;;;;;6274436;28;20466;-64
2021/11/12 07:32:38;;;;;;;21.73;14.80;;;6.90;99.90;;;;;;6278111;28;20616;-64
2021/11/12 07:35:49;;;;;;;16.90;12.00;;;6.80;99.90;;;;;;6275308;28;20485;-64
2021/11/12 07:38:54;;;;;;;15.90;12.57;;;6.70;99.90;;;;;;6280007;28;20953;-64
2021/11/12 07:42:14;;;;;;;21.33;14.80;;;6.70;99.90;;;;;;6280460;28;20588;-63
2021/11/12 07:45:29;;;;;;;23.00;13.73;;;6.70;99.90;;;;;;6282593;28;20523;-64
2021/11/12 07:48:33;;;;;;;21.57;14.27;;;6.80;99.90;;;;;;6281692;28;20988;-64
2021/11/12 07:51:37;;;;;;;20.17;13.70;;;6.80;99.90;;;;;;6280323;28;20477;-65
2021/11/12 07:54:41;;;;;;;17.43;13.43;;;6.80;99.90;;;;;;6279222;28;20484;-64
2021/11/12 07:57:45;;;;;;;21.13;15.57;;;6.80;99.90;;;;;;6279011;28;20466;-64
2021/11/12 08:00:49;;;;;;;20.00;13.40;;;6.80;99.90;;;;;;6278849;28;20523;-65
2021/11/12 08:03:55;;;;;;;22.17;16.03;;;6.90;99.90;;;;;;6276048;28;20458;-65
2021/11/12 08:07:00;;;;;;;21.30;17.10;;;6.90;99.90;;;;;;6278589;28;20451;-64
2021/11/12 08:10:06;;;;;;;22.03;14.90;;;7.00;99.90;;;;;;6278278;28;20465;-65
2021/11/12 08:13:13;;;;;;;22.83;16.40;;;7.10;99.90;;;;;;6270693;28;20950;-65
2021/11/12 08:16:26;;;;;;;19.67;14.63;;;7.20;99.90;;;;;;6269434;28;20471;-66
2021/11/12 08:19:34;;;;;;;21.13;16.53;;;7.30;99.90;;;;;;6274838;28;20557;-66
2021/11/12 08:22:40;;;;;;;20.03;15.90;;;7.40;99.90;;;;;;6274480;28;20466;-66
2021/11/12 08:25:48;;;;;;;20.80;15.47;;;7.40;99.90;;;;;;6277195;28;20469;-65
2021/11/12 08:29:11;;;;;;;23.27;17.10;;;7.50;99.90;;;;;;6276768;28;20466;-64
2021/11/12 08:39:04;;;;;;;20.43;15.03;;;7.60;99.90;;;;;;6265097;28;20966;-64
2021/11/12 08:42:11;;;;;;;20.00;15.53;;;7.50;99.90;;;;;;6275065;28;20484;-63
2021/11/12 08:45:19;;;;;;;23.37;15.57;;;7.50;99.90;;;;;;6273330;28;20477;-65
2021/11/12 08:48:25;;;;;;;21.60;14.80;;;7.50;99.90;;;;;;6258251;28;20836;-63
2021/11/12 08:51:34;;;;;;;20.70;15.97;;;7.40;99.90;;;;;;6275381;28;20496;-64
2021/11/12 08:54:42;;;;;;;23.37;18.27;;;7.40;99.90;;;;;;6275262;28;20497;-64
2021/11/12 08:57:47;;;;;;;27.90;17.40;;;7.30;99.90;;;;;;6274620;28;20975;-65
2021/11/12 09:00:51;;;;;;;23.30;17.23;;;7.40;99.90;;;;;;6276186;28;20470;-65
2021/11/12 09:03:55;;;;;;;23.27;15.83;;;7.50;99.90;;;;;;6276143;28;20439;-65
2021/11/12 09:06:59;;;;;;;21.77;16.40;;;7.30;99.90;;;;;;6275532;28;20469;-65
2021/11/12 09:10:03;;;;;;;23.33;14.87;;;7.30;99.90;;;;;;6259407;28;20491;-65
2021/11/12 09:13:13;;;;;;;15.90;13.63;;;7.30;99.90;;;;;;6251447;28;20487;-64
2021/11/12 09:16:19;;;;;;;18.63;13.90;;;7.40;99.90;;;;;;6251430;28;20475;-64
2021/11/12 09:19:22;;;;;;;21.23;14.37;;;7.50;99.90;;;;;;6251447;28;20556;-66
2021/11/12 09:22:31;;;;;;;19.63;15.43;;;7.50;99.90;;;;;;6271819;28;20485;-66
2021/11/12 09:25:34;;;;;;;21.10;14.37;;;7.50;99.90;;;;;;6257975;28;20478;-66
2021/11/12 09:28:37;;;;;;;19.27;14.50;;;7.50;99.90;;;;;;6261338;28;20524;-66
2021/11/12 09:31:42;;;;;;;23.47;16.20;;;7.30;99.90;;;;;;6274818;28;20469;-66
2021/11/12 09:34:46;;;;;;;18.83;13.83;;;7.30;99.90;;;;;;6292931;28;20469;-65
2021/11/12 09:37:49;;;;;;;19.93;15.00;;;7.30;99.90;;;;;;6299770;28;20481;-65
2021/11/12 09:40:53;;;;;;;17.90;15.00;;;7.40;99.90;;;;;;6260952;28;20780;-66
2021/11/12 09:43:57;;;;;;;21.20;14.40;;;7.30;99.90;;;;;;6250085;28;20485;-65
2021/11/12 09:47:01;;;;;;;21.90;15.70;;;7.30;99.90;;;;;;6256143;28;20970;-65
2021/11/12 09:50:07;;;;;;;19.73;15.40;;;7.30;99.90;;;;;;6274634;28;20474;-65
2021/11/12 09:53:10;;;;;;;22.53;15.50;;;7.30;99.90;;;;;;6274128;28;20497;-65
2021/11/12 09:56:14;;;;;;;22.10;14.50;;;7.30;99.90;;;;;;6273437;28;20485;-66
2021/11/12 09:59:17;;;;;;;19.70;13.80;;;7.40;99.90;;;;;;6274297;28;20482;-65
2021/11/12 10:02:27;;;;;;;21.40;14.57;;;7.40;99.90;;;;;;6274532;28;20477;-66
2021/11/12 10:05:35;;;;;;;18.50;15.07;;;7.40;99.90;;;;;;6274583;28;20482;-64
2021/11/12 10:08:40;;;;;;;23.60;16.83;;;7.40;99.90;;;;;;6273915;28;20836;-65
2021/11/12 10:11:49;;;;;;;18.80;14.50;;;7.30;99.90;;;;;;6274236;28;20477;-68
2021/11/12 10:15:11;;;;;;;21.37;14.27;;;7.30;99.90;;;;;;6251516;28;20479;-66
2021/11/12 10:18:16;;;;;;;18.53;12.27;;;7.40;99.90;;;;;;6249659;28;20479;-65
2021/11/12 10:21:19;;;;;;;15.00;12.37;;;7.40;99.90;;;;;;6253654;28;20479;-66
2021/11/12 10:24:27;;;;;;;16.67;11.60;;;7.60;99.90;;;;;;6249305;28;20471;-66
2021/11/12 10:27:34;;;;;;;18.20;12.43;;;7.70;99.90;;;;;;6264562;28;20500;-65
2021/11/12 10:30:40;;;;;;;21.47;15.30;;;7.70;99.90;;;;;;6287993;28;20802;-66
2021/11/12 10:33:50;;;;;;;22.93;14.67;;;7.70;99.90;;;;;;6298547;28;20485;-65
2021/11/12 10:36:58;;;;;;;20.17;14.20;;;7.60;99.90;;;;;;6298938;28;20508;-65
2021/11/12 10:40:13;;;;;;;17.40;13.73;;;7.60;99.90;;;;;;6298428;28;20483;-64
2021/11/12 10:43:23;;;;;;;14.50;12.43;;;7.50;99.90;;;;;;6299171;28;20472;-66
2021/11/12 10:46:38;;;;;;;19.50;13.83;;;7.50;99.90;;;;;;6285777;28;20478;-64
2021/11/12 10:49:43;;;;;;;16.37;13.23;;;7.50;99.90;;;;;;6273673;28;20785;-64
2021/11/12 10:52:49;;;;;;;17.53;12.43;;;7.50;99.90;;;;;;6277111;28;20473;-63
2021/11/12 10:55:56;;;;;;;15.10;12.60;;;7.50;99.90;;;;;;6298591;28;20474;-66
2021/11/12 10:59:04;;;;;;;15.97;12.00;;;7.40;99.90;;;;;;6298504;28;20803;-65
2021/11/12 11:02:10;;;;;;;15.47;12.40;;;7.30;99.90;;;;;;6281376;28;20565;-65
2021/11/12 11:05:41;;;;;;;17.70;12.23;;;7.40;99.90;;;;;;6255234;28;20952;-65
2021/11/12 11:08:52;;;;;;;18.00;13.27;;;7.40;99.90;;;;;;6273014;28;20474;-65
2021/11/12 11:11:55;;;;;;;15.40;12.20;;;7.40;99.90;;;;;;6252091;28;20475;-64
2021/11/12 11:15:18;;;;;;;16.90;12.57;;;7.50;99.90;;;;;;6266427;28;20982;-65
2021/11/12 11:18:24;;;;;;;19.33;11.70;;;7.40;99.90;;;;;;6251923;28;20470;-64
2021/11/12 11:21:29;;;;;;;16.47;12.10;;;7.40;99.90;;;;;;6253067;28;20970;-64
2021/11/12 11:24:33;;;;;;;18.27;13.20;;;7.50;99.90;;;;;;6247895;28;20470;-65
2021/11/12 11:27:36;;;;;;;21.43;13.80;;;7.50;99.90;;;;;;6270820;28;20477;-64
2021/11/12 11:30:40;;;;;;;19.93;12.53;;;7.40;99.90;;;;;;6297776;28;20473;-64
2021/11/12 11:33:45;;;;;;;17.50;12.00;;;7.40;99.90;;;;;;6297551;28;20771;-64
2021/11/12 11:36:51;;;;;;;19.00;12.97;;;7.40;99.90;;;;;;6281971;28;20478;-64
2021/11/12 11:39:57;;;;;;;18.50;12.90;;;7.50;99.90;;;;;;6248768;28;20482;-64
2021/11/12 11:43:00;;;;;;;18.07;13.70;;;7.50;99.90;;;;;;6247570;28;20443;-64
2021/11/12 11:46:06;;;;;;;16.57;12.27;;;7.40;99.90;;;;;;6247636;28;20463;-64
2021/11/12 11:49:11;;;;;;;17.03;11.50;;;7.50;99.90;;;;;;6238772;28;20419;-64
2021/11/12 11:52:25;;;;;;;16.60;12.13;;;7.60;99.90;;;;;;6248544;28;20478;-64
2021/11/12 11:55:36;;;;;;;18.27;13.03;;;7.60;99.90;;;;;;6247893;28;20474;-64
2021/11/12 11:58:42;;;;;;;13.17;11.70;;;7.60;99.90;;;;;;6247614;28;20481;-64
2021/11/12 12:01:50;;;;;;;16.00;13.37;;;7.50;99.90;;;;;;6248831;28;20477;-64
2021/11/12 12:04:59;;;;;;;17.93;12.70;;;7.40;99.90;;;;;;6272841;28;20498;-64
2021/11/12 12:08:26;;;;;;;14.60;11.13;;;7.40;99.90;;;;;;6272749;28;20492;-64
2021/11/12 12:11:29;;;;;;;17.47;11.63;;;7.40;99.90;;;;;;6272298;28;20474;-64
2021/11/12 12:14:36;;;;;;;17.33;11.73;;;7.30;99.90;;;;;;6272054;28;20485;-64
2021/11/12 12:17:43;;;;;;;14.53;11.07;;;7.40;99.90;;;;;;6273071;28;20619;-65
2021/11/12 12:21:18;;;;;;;15.17;12.93;;;7.30;99.90;;;;;;6269652;28;20482;-64
2021/11/12 12:32:24;;;;;;;16.67;12.90;;;7.40;99.90;;;;;;6275576;28;20462;-64
2021/11/12 12:35:22;;;;;;;15.53;12.37;;;7.40;99.90;;;;;;6275167;28;20538;-64
2021/11/12 13:19:51;;;;;;;19.80;10.80;;;7.40;99.90;;;;;;6275645;28;21191;-67
2021/11/12 13:23:05;;;;;;;15.83;11.77;;;7.30;99.90;;;;;;6250869;28;20965;-66
2021/11/12 13:26:08;;;;;;;16.53;12.90;;;7.40;99.90;;;;;;6250662;28;20491;-66
2021/11/12 13:29:12;;;;;;;18.67;12.83;;;7.30;99.90;;;;;;6250759;28;20474;-66
2021/11/12 13:32:17;;;;;;;15.97;11.17;;;7.40;99.90;;;;;;6249582;28;20483;-65
2021/11/12 13:35:29;;;;;;;14.93;12.60;;;7.50;99.90;;;;;;6250025;28;20489;-65
2021/11/12 13:38:41;;;;;;;17.87;11.67;;;7.40;99.90;;;;;;6249516;28;20494;-67
2021/11/12 13:41:46;;;;;;;13.33;11.93;;;7.40;99.90;;;;;;6250472;28;20794;-66
2021/11/12 13:44:49;;;;;;;14.20;10.80;;;7.40;99.90;;;;;;6250808;28;20481;-65
2021/11/12 13:48:09;;;;;;;13.43;11.40;;;7.40;99.90;;;;;;6250897;28;20989;-64
2021/11/12 13:51:13;;;;;;;13.83;11.77;;;7.50;99.90;;;;;;6249379;28;20478;-65
2021/11/12 13:54:16;;;;;;;16.80;12.90;;;7.40;99.90;;;;;;6260747;28;20459;-64
2021/11/12 13:57:21;;;;;;;17.00;11.90;;;7.40;99.90;;;;;;6249608;28;20482;-65
2021/11/12 14:00:28;;;;;;;16.10;11.50;;;7.40;99.90;;;;;;6247242;28;20488;-65
2021/11/12 14:03:38;;;;;;;21.83;14.30;;;7.40;99.90;;;;;;6274127;28;20480;-64
2021/11/12 14:06:41;;;;;;;16.40;13.20;;;7.40;99.90;;;;;;6249402;28;20471;-65
2021/11/12 14:09:59;;;;;;;18.60;12.67;;;7.20;99.90;;;;;;6261554;28;20808;-65
2021/11/12 14:13:05;;;;;;;14.73;12.60;;;7.20;99.90;;;;;;6273924;28;20462;-66
2021/11/12 14:16:14;;;;;;;14.93;12.50;;;7.30;99.90;;;;;;6273540;28;20478;-64
2021/11/12 14:19:40;;;;;;;18.87;14.27;;;7.30;99.90;;;;;;6273869;28;20920;-65
2021/11/12 14:22:49;;;;;;;16.60;13.43;;;7.00;99.90;;;;;;6250787;28;20482;-65
2021/11/12 14:29:59;;;;;;;17.30;12.97;;;7.00;99.90;;;;;;6258979;28;20476;-66
2021/11/12 14:33:11;;;;;;;16.77;12.73;;;7.00;99.90;;;;;;6273948;28;20469;-67
2021/11/12 14:36:28;;;;;;;17.13;12.60;;;7.00;99.90;;;;;;6273367;28;20965;-67
2021/11/12 14:43:13;;;;;;;20.13;14.50;;;7.10;99.90;;;;;;6273763;28;20985;-66
2021/11/12 14:46:22;;;;;;;18.90;13.47;;;7.10;99.90;;;;;;6273670;28;20481;-67
2021/11/12 14:49:29;;;;;;;18.87;14.00;;;7.10;99.90;;;;;;6273610;28;20474;-67
2021/11/12 14:52:34;;;;;;;15.13;11.33;;;6.90;99.90;;;;;;6273228;28;20470;-68
2021/11/12 14:55:42;;;;;;;20.17;13.67;;;7.00;99.90;;;;;;6258956;28;20501;-67
2021/11/12 14:58:49;;;;;;;16.27;12.90;;;7.00;99.90;;;;;;6248116;28;20482;-67
2021/11/12 15:01:52;;;;;;;19.70;14.87;;;7.00;99.90;;;;;;6264040;28;20470;-67
2021/11/12 15:04:56;;;;;;;19.17;13.53;;;7.00;99.90;;;;;;6271013;28;20872;-67
2021/11/12 15:08:06;;;;;;;14.80;12.40;;;7.00;99.90;;;;;;6270826;22;20459;-65
2021/11/12 15:11:10;;;;;;;18.70;12.77;;;7.10;99.90;;;;;;6248625;28;20463;-66
2021/11/12 15:14:16;;;;;;;17.90;14.63;;;7.10;99.90;;;;;;6248020;28;20463;-65
2021/11/12 15:17:37;;;;;;;14.77;13.23;;;6.90;99.90;;;;;;6232307;28;20472;-63
2021/11/12 15:20:41;;;;;;;19.77;13.43;;;6.70;99.90;;;;;;6224804;28;20472;-64
2021/11/12 15:27:16;;;;;;;19.57;14.37;;;6.80;99.90;;;;;;6220442;28;20834;-65
2021/11/12 15:30:22;;;;;;;16.30;13.40;;;6.90;99.90;;;;;;6223038;28;20487;-65
2021/11/12 15:33:26;;;;;;;15.70;12.10;;;6.90;99.90;;;;;;6222300;28;20476;-65
2021/11/12 15:36:30;;;;;;;15.53;11.60;;;7.00;99.90;;;;;;6221679;28;20484;-65
2021/11/12 15:39:55;;;;;;;14.07;12.10;;;7.10;99.90;;;;;;6222121;28;20475;-64
2021/11/12 15:43:22;;;;;;;16.87;12.23;;;7.20;99.90;;;;;;6222420;28;20459;-65
2021/11/12 15:46:27;;;;;;;15.60;11.93;;;7.30;99.90;;;;;;6223000;28;20476;-65
2021/11/12 15:49:31;;;;;;;15.87;12.20;;;7.20;99.90;;;;;;6223774;28;20475;-66
2021/11/12 15:52:41;;;;;;;17.97;12.63;;;7.30;99.90;;;;;;6225421;28;20874;-66
2021/11/12 15:56:03;;;;;;;16.37;12.73;;;7.40;99.90;;;;;;6228277;28;20487;-65
2021/11/12 15:59:21;;;;;;;18.90;12.93;;;7.30;99.90;;;;;;6228777;28;20475;-65
2021/11/12 16:12:46;;;;;;;18.70;14.10;;;7.30;99.90;;;;;;6220972;28;20502;-64
2021/11/12 16:19:13;;;;;;;19.00;14.40;;;7.30;99.90;;;;;;6252294;28;20796;-65
2021/11/12 16:22:39;;;;;;;18.57;13.97;;;7.20;99.90;;;;;;6233483;28;20810;-65
2021/11/12 16:25:42;;;;;;;14.83;11.73;;;7.00;99.90;;;;;;6228479;28;20479;-64
2021/11/12 16:28:59;;;;;;;17.27;12.07;;;7.10;99.90;;;;;;6228363;28;20483;-64
2021/11/12 16:32:04;;;;;;;16.10;12.00;;;7.10;99.90;;;;;;6227623;28;20472;-65
2021/11/12 16:35:10;;;;;;;19.17;14.03;;;7.10;99.90;;;;;;6227690;28;20474;-66
2021/11/12 16:38:17;;;;;;;16.10;12.33;;;7.10;99.90;;;;;;6227053;28;20480;-66
2021/11/12 16:41:23;;;;;;;22.83;13.13;;;7.10;99.90;;;;;;6227240;28;20480;-64
2021/11/12 16:44:34;;;;;;;16.33;11.97;;;7.10;99.90;;;;;;6227596;28;20464;-64
2021/11/12 16:51:32;;;;;;;20.00;12.30;;;7.00;99.90;;;;;;6176053;28;20474;-63
2021/11/12 16:54:42;;;;;;;18.73;13.03;;;7.10;99.90;;;;;;6178160;28;20474;-63
2021/11/12 16:58:04;;;;;;;17.57;13.77;;;7.20;99.90;;;;;;6227019;28;20685;-63
2021/11/12 17:04:38;;;;;;;19.50;12.73;;;7.00;99.90;;;;;;6226528;28;20475;-64
2021/11/12 17:07:56;;;;;;;13.20;11.73;;;7.00;99.90;;;;;;6242435;28;20536;-65
2021/11/12 17:11:19;;;;;;;16.87;11.40;;;7.00;99.90;;;;;;6251692;28;20475;-64
2021/11/12 17:14:35;;;;;;;13.47;10.30;;;6.90;99.90;;;;;;6233383;28;20476;-64
2021/11/12 17:17:56;;;;;;;17.53;12.10;;;7.00;99.90;;;;;;6225057;28;20548;-64
2021/11/12 17:47:50;;;;;;;13.93;11.67;;;7.00;99.90;;;;;;6223226;28;20499;-63
2021/11/12 17:51:16;;;;;;;12.03;10.80;;;7.10;99.90;;;;;;6225715;28;20483;-63
2021/11/12 18:04:29;;;;;;;15.27;10.77;;;7.00;99.90;;;;;;6226016;28;20477;-64
2021/11/12 21:44:07;;;;;;;12.13;7.80;;;6.40;99.90;;;;;;6223749;28;20475;-64
2021/11/12 21:47:11;;;;;;;8.17;7.37;;;6.50;99.90;;;;;;6224879;28;20487;-63
2021/11/12 21:50:14;;;;;;;9.00;6.83;;;6.50;99.90;;;;;;6224961;28;20463;-65
2021/11/12 21:53:22;;;;;;;10.33;7.77;;;6.50;99.90;;;;;;6210374;28;20483;-67
2021/11/12 21:56:25;;;;;;;8.43;7.10;;;6.50;99.90;;;;;;6224708;28;20483;-64
2021/11/12 21:59:28;;;;;;;11.23;8.57;;;6.60;99.90;;;;;;6223428;28;20803;-63
2021/11/12 22:02:32;;;;;;;12.17;8.70;;;6.60;99.90;;;;;;6224220;28;20471;-64
2021/11/12 22:05:35;;;;;;;11.87;9.30;;;6.60;99.90;;;;;;6223690;28;20480;-64
2021/11/12 22:08:40;;;;;;;8.17;7.33;;;6.60;99.90;;;;;;6245564;28;20521;-64
2021/11/12 22:11:43;;;;;;;9.93;7.80;;;6.70;99.90;;;;;;6249157;28;20477;-63
2021/11/12 22:14:47;;;;;;;7.50;6.70;;;6.60;99.90;;;;;;6249431;28;20532;-63
2021/11/12 22:17:50;;;;;;;7.87;6.57;;;6.50;99.90;;;;;;6249512;28;20490;-64
2021/11/12 22:20:53;;;;;;;13.53;7.90;;;6.40;99.90;;;;;;6240841;28;20480;-63
2021/11/12 22:23:58;;;;;;;7.00;6.20;;;6.30;99.90;;;;;;6223994;28;20486;-64
2021/11/12 22:27:01;;;;;;;7.53;6.17;;;6.30;99.90;;;;;;6220193;28;20474;-64
2021/11/12 22:30:05;;;;;;;11.53;7.60;;;6.10;99.90;;;;;;6224608;28;20482;-64
2021/11/12 22:33:08;;;;;;;12.60;7.10;;;6.10;99.90;;;;;;6224602;28;20472;-64
2021/11/12 22:36:13;;;;;;;12.93;7.27;;;6.10;99.90;;;;;;6224553;28;20951;-63
2021/11/12 22:39:19;;;;;;;8.20;6.30;;;6.20;99.90;;;;;;6224427;28;20484;-64
2021/11/12 22:42:22;;;;;;;9.77;6.93;;;6.30;99.90;;;;;;6224656;28;20771;-64
2021/11/12 22:45:25;;;;;;;7.77;6.40;;;6.30;99.90;;;;;;6224643;28;20974;-64
2021/11/12 22:48:29;;;;;;;8.50;6.50;;;6.30;99.90;;;;;;6224533;28;20972;-65
2021/11/12 22:51:32;;;;;;;9.50;6.40;;;6.40;99.90;;;;;;6224519;28;20487;-65
2021/11/12 22:54:37;;;;;;;8.40;6.47;;;6.40;99.90;;;;;;6224281;28;20478;-62
2021/11/12 22:57:41;;;;;;;9.30;7.13;;;6.40;99.90;;;;;;6224331;28;20506;-63
2021/11/12 23:01:09;;;;;;;9.00;7.13;;;6.40;99.90;;;;;;6223496;28;20932;-62
2021/11/12 23:04:12;;;;;;;9.93;7.30;;;6.50;99.90;;;;;;6224461;28;20481;-62
2021/11/12 23:07:16;;;;;;;6.47;5.73;;;6.50;99.90;;;;;;6223970;28;20916;-63
2021/11/12 23:10:21;;;;;;;6.50;5.90;;;6.60;99.90;;;;;;6223971;28;20475;-63
2021/11/12 23:13:26;;;;;;;10.27;7.37;;;6.70;99.90;;;;;;6224295;28;20478;-63
2021/11/12 23:16:29;;;;;;;11.90;8.17;;;6.70;99.90;;;;;;6223900;28;20491;-63
2021/11/12 23:19:32;;;;;;;7.83;7.03;;;6.80;99.90;;;;;;6224329;28;20539;-63
2021/11/12 23:22:36;;;;;;;9.57;8.23;;;6.70;99.90;;;;;;6223888;28;20463;-63
2021/11/12 23:25:41;;;;;;;10.47;7.40;;;6.70;99.90;;;;;;6223826;28;20480;-63
2021/11/12 23:28:44;;;;;;;10.23;7.90;;;6.60;99.90;;;;;;6223676;28;20478;-63
2021/11/12 23:31:47;;;;;;;10.97;7.80;;;6.60;99.90;;;;;;6223214;28;20471;-64
2021/11/12 23:34:51;;;;;;;14.43;9.50;;;6.50;99.90;;;;;;6215115;28;20474;-63
2021/11/12 23:37:54;;;;;;;11.50;8.70;;;6.50;99.90;;;;;;6223954;28;20510;-63
2021/11/12 23:40:58;;;;;;;12.23;8.63;;;6.50;99.90;;;;;;6224281;28;20475;-63
2021/11/12 23:44:02;;;;;;;9.53;8.17;;;6.50;99.90;;;;;;6224083;28;20951;-63
2021/11/12 23:47:05;;;;;;;9.43;7.73;;;6.50;99.90;;;;;;6224309;28;20480;-63
2021/11/12 23:50:09;;;;;;;11.60;8.43;;;6.60;99.90;;;;;;6223485;28;20479;-63
2021/11/12 23:53:13;;;;;;;10.57;7.20;;;6.60;99.90;;;;;;6214705;28;20546;-63
2021/11/12 23:56:17;;;;;;;9.17;7.87;;;6.50;99.90;;;;;;6199061;28;20484;-63
2021/11/12 23:59:20;;;;;;;8.70;7.10;;;6.50;99.90;;;;;;6199065;28;20481;-64
